sensor_id;sensor_type;location;lat;lon;timestamp;temperature;humidity
9219;DHT22;4644;48.858;9.184;2022-10-30T00:00:29;14.30;99.90
9219;DHT22;4644;48.858;9.184;2022-10-30T00:02:56;14.30;99.90
9219;DHT22;4644;48.858;9.184;2022-10-30T00:05:23;14.30;99.90
9219;DHT22;4644;48.858;9.184;2022-10-30T00:07:50;14.30;99.90
9219;DHT22;4644;48.858;9.184;2022-10-30T00:10:18;14.40;99.90
9219;DHT22;4644;48.858;9.184;2022-10-30T00:12:45;14.30;99.90
9219;DHT22;4644;48.858;9.184;2022-10-30T00:15:13;14.30;99.90
9219;DHT22;4644;48.858;9.184;2022-10-30T00:17:40;14.30;99.90
9219;DHT22;4644;48.858;9.184;2022-10-30T00:20:08;14.30;99.90
9219;DHT22;4644;48.858;9.184;2022-10-30T00:22:35;14.30;99.90
9219;DHT22;4644;48.858;9.184;2022-10-30T00:25:03;14.20;99.90
9219;DHT22;4644;48.858;9.184;2022-10-30T00:27:30;14.20;99.90
9219;DHT22;4644;48.858;9.184;2022-10-30T00:29:57;14.20;99.90
9219;DHT22;4644;48.858;9.184;2022-10-30T00:32:26;14.20;99.90
9219;DHT22;4644;48.858;9.184;2022-10-30T00:34:53;14.20;99.90
9219;DHT22;4644;48.858;9.184;2022-10-30T00:37:20;14.20;99.90
9219;DHT22;4644;48.858;9.184;2022-10-30T00:39:47;14.10;99.90
9219;DHT22;4644;48.858;9.184;2022-10-30T00:42:15;14.10;99.90
9219;DHT22;4644;48.858;9.184;2022-10-30T00:44:45;14.00;99.90
9219;DHT22;4644;48.858;9.184;2022-10-30T00:47:17;14.00;99.90
9219;DHT22;4644;48.858;9.184;2022-10-30T00:49:53;13.90;99.90
9219;DHT22;4644;48.858;9.184;2022-10-30T00:52:23;14.00;99.90
9219;DHT22;4644;48.858;9.184;2022-10-30T00:54:52;13.90;99.90
9219;DHT22;4644;48.858;9.184;2022-10-30T00:57:20;13.90;99.90
9219;DHT22;4644;48.858;9.184;2022-10-30T00:59:49;13.90;99.90
9219;DHT22;4644;48.858;9.184;2022-10-30T01:02:16;13.90;99.90
9219;DHT22;4644;48.858;9.184;2022-10-30T01:04:46;13.80;99.90
9219;DHT22;4644;48.858;9.184;2022-10-30T01:07:16;13.80;99.90
9219;DHT22;4644;48.858;9.184;2022-10-30T01:09:45;13.80;99.90
9219;DHT22;4644;48.858;9.184;2022-10-30T01:12:12;13.70;99.90
9219;DHT22;4644;48.858;9.184;2022-10-30T01:14:42;13.60;99.90
9219;DHT22;4644;48.858;9.184;2022-10-30T01:17:20;13.60;99.90
9219;DHT22;4644;48.858;9.184;2022-10-30T01:19:57;13.60;99.90
9219;DHT22;4644;48.858;9.184;2022-10-30T01:22:41;13.50;99.90
9219;DHT22;4644;48.858;9.184;2022-10-30T01:25:23;13.50;99.90
9219;DHT22;4644;48.858;9.184;2022-10-30T01:27:57;13.40;99.90
9219;DHT22;4644;48.858;9.184;2022-10-30T01:30:39;13.40;99.90
9219;DHT22;4644;48.858;9.184;2022-10-30T01:33:21;13.60;99.90
9219;DHT22;4644;48.858;9.184;2022-10-30T01:35:54;13.70;99.90
9219;DHT22;4644;48.858;9.184;2022-10-30T01:38:28;13.80;99.90
9219;DHT22;4644;48.858;9.184;2022-10-30T01:40:57;13.80;99.90
9219;DHT22;4644;48.858;9.184;2022-10-30T01:43:24;13.90;99.90
9219;DHT22;4644;48.858;9.184;2022-10-30T01:46:09;13.90;99.90
9219;DHT22;4644;48.858;9.184;2022-10-30T01:49:01;13.90;99.90
9219;DHT22;4644;48.858;9.184;2022-10-30T01:51:44;13.90;99.90
9219;DHT22;4644;48.858;9.184;2022-10-30T01:54:24;13.90;99.90
9219;DHT22;4644;48.858;9.184;2022-10-30T01:57:01;13.90;99.90
9219;DHT22;4644;48.858;9.184;2022-10-30T01:59:32;13.90;99.90
9219;DHT22;4644;48.858;9.184;2022-10-30T02:02:02;13.90;99.90
9219;DHT22;4644;48.858;9.184;2022-10-30T02:04:29;13.90;99.90
9219;DHT22;4644;48.858;9.184;2022-10-30T02:06:56;13.90;99.90
9219;DHT22;4644;48.858;9.184;2022-10-30T02:09:25;13.90;99.90
9219;DHT22;4644;48.858;9.184;2022-10-30T02:11:53;13.90;99.90
9219;DHT22;4644;48.858;9.184;2022-10-30T02:14:23;13.90;99.90
9219;DHT22;4644;48.858;9.184;2022-10-30T02:16:53;13.90;99.90
9219;DHT22;4644;48.858;9.184;2022-10-30T02:19:22;13.90;99.90
9219;DHT22;4644;48.858;9.184;2022-10-30T02:21:51;13.90;99.90
9219;DHT22;4644;48.858;9.184;2022-10-30T02:24:18;13.90;99.90
9219;DHT22;4644;48.858;9.184;2022-10-30T02:26:45;13.90;99.90
9219;DHT22;4644;48.858;9.184;2022-10-30T02:29:12;13.90;99.90
9219;DHT22;4644;48.858;9.184;2022-10-30T02:31:39;13.90;99.90
9219;DHT22;4644;48.858;9.184;2022-10-30T02:34:06;13.90;99.90
9219;DHT22;4644;48.858;9.184;2022-10-30T02:36:33;13.90;99.90
9219;DHT22;4644;48.858;9.184;2022-10-30T02:39:02;13.90;99.90
9219;DHT22;4644;48.858;9.184;2022-10-30T02:41:29;13.90;99.90
9219;DHT22;4644;48.858;9.184;2022-10-30T02:43:59;13.90;99.90
9219;DHT22;4644;48.858;9.184;2022-10-30T02:46:26;13.90;99.90
9219;DHT22;4644;48.858;9.184;2022-10-30T02:48:53;13.80;99.90
9219;DHT22;4644;48.858;9.184;2022-10-30T02:51:20;13.80;99.90
9219;DHT22;4644;48.858;9.184;2022-10-30T02:53:47;13.80;99.90
9219;DHT22;4644;48.858;9.184;2022-10-30T02:56:16;13.80;99.90
9219;DHT22;4644;48.858;9.184;2022-10-30T02:58:43;13.80;99.90
9219;DHT22;4644;48.858;9.184;2022-10-30T03:01:12;13.80;99.90
9219;DHT22;4644;48.858;9.184;2022-10-30T03:03:40;13.90;99.90
9219;DHT22;4644;48.858;9.184;2022-10-30T03:06:09;13.90;99.90
9219;DHT22;4644;48.858;9.184;2022-10-30T03:08:36;13.90;99.90
9219;DHT22;4644;48.858;9.184;2022-10-30T03:11:09;13.90;99.90
9219;DHT22;4644;48.858;9.184;2022-10-30T03:13:38;13.90;99.90
9219;DHT22;4644;48.858;9.184;2022-10-30T03:16:07;13.90;99.90
9219;DHT22;4644;48.858;9.184;2022-10-30T03:18:35;13.80;99.90
9219;DHT22;4644;48.858;9.184;2022-10-30T03:21:05;13.80;99.90
9219;DHT22;4644;48.858;9.184;2022-10-30T03:23:32;13.70;99.90
9219;DHT22;4644;48.858;9.184;2022-10-30T03:25:59;13.70;99.90
9219;DHT22;4644;48.858;9.184;2022-10-30T03:28:29;13.70;99.90
9219;DHT22;4644;48.858;9.184;2022-10-30T03:31:01;13.60;99.90
9219;DHT22;4644;48.858;9.184;2022-10-30T03:33:29;13.60;99.90
9219;DHT22;4644;48.858;9.184;2022-10-30T03:35:56;13.60;99.90
9219;DHT22;4644;48.858;9.184;2022-10-30T03:38:24;13.60;99.90
9219;DHT22;4644;48.858;9.184;2022-10-30T03:40:51;13.50;99.90
9219;DHT22;4644;48.858;9.184;2022-10-30T03:43:20;13.50;99.90
9219;DHT22;4644;48.858;9.184;2022-10-30T03:45:48;13.40;99.90
9219;DHT22;4644;48.858;9.184;2022-10-30T03:48:18;13.40;99.90
9219;DHT22;4644;48.858;9.184;2022-10-30T03:50:47;13.40;99.90
9219;DHT22;4644;48.858;9.184;2022-10-30T03:53:14;13.40;99.90
9219;DHT22;4644;48.858;9.184;2022-10-30T03:55:41;13.40;99.90
9219;DHT22;4644;48.858;9.184;2022-10-30T03:58:08;13.40;99.90
9219;DHT22;4644;48.858;9.184;2022-10-30T04:00:35;13.40;99.90
9219;DHT22;4644;48.858;9.184;2022-10-30T04:03:06;13.40;99.90
9219;DHT22;4644;48.858;9.184;2022-10-30T04:05:35;13.40;99.90
9219;DHT22;4644;48.858;9.184;2022-10-30T04:08:05;13.40;99.90
9219;DHT22;4644;48.858;9.184;2022-10-30T04:10:33;13.40;99.90
9219;DHT22;4644;48.858;9.184;2022-10-30T04:13:01;13.40;99.90
9219;DHT22;4644;48.858;9.184;2022-10-30T04:15:29;13.40;99.90
9219;DHT22;4644;48.858;9.184;2022-10-30T04:17:56;13.40;99.90
9219;DHT22;4644;48.858;9.184;2022-10-30T04:20:24;13.40;99.90
9219;DHT22;4644;48.858;9.184;2022-10-30T04:22:56;13.30;99.90
9219;DHT22;4644;48.858;9.184;2022-10-30T04:25:24;13.30;99.90
9219;DHT22;4644;48.858;9.184;2022-10-30T04:27:52;13.30;99.90
9219;DHT22;4644;48.858;9.184;2022-10-30T04:30:19;13.30;99.90
9219;DHT22;4644;48.858;9.184;2022-10-30T04:32:47;13.30;99.90
9219;DHT22;4644;48.858;9.184;2022-10-30T04:35:15;13.20;99.90
9219;DHT22;4644;48.858;9.184;2022-10-30T04:37:48;13.20;99.90
9219;DHT22;4644;48.858;9.184;2022-10-30T04:40:18;13.20;99.90
9219;DHT22;4644;48.858;9.184;2022-10-30T04:42:46;13.20;99.90
9219;DHT22;4644;48.858;9.184;2022-10-30T04:45:13;13.10;99.90
9219;DHT22;4644;48.858;9.184;2022-10-30T04:47:40;13.10;99.90
9219;DHT22;4644;48.858;9.184;2022-10-30T04:50:08;13.00;99.90
9219;DHT22;4644;48.858;9.184;2022-10-30T04:52:35;13.00;99.90
9219;DHT22;4644;48.858;9.184;2022-10-30T04:55:02;13.00;99.90
9219;DHT22;4644;48.858;9.184;2022-10-30T04:57:30;13.00;99.90
9219;DHT22;4644;48.858;9.184;2022-10-30T04:59:57;13.00;99.90
9219;DHT22;4644;48.858;9.184;2022-10-30T05:02:24;13.00;99.90
9219;DHT22;4644;48.858;9.184;2022-10-30T05:04:51;13.00;99.90
9219;DHT22;4644;48.858;9.184;2022-10-30T05:07:18;13.00;99.90
9219;DHT22;4644;48.858;9.184;2022-10-30T05:09:46;13.00;99.90
9219;DHT22;4644;48.858;9.184;2022-10-30T05:12:13;13.00;99.90
9219;DHT22;4644;48.858;9.184;2022-10-30T05:14:42;12.90;99.90
9219;DHT22;4644;48.858;9.184;2022-10-30T05:17:09;12.90;99.90
9219;DHT22;4644;48.858;9.184;2022-10-30T05:19:36;12.90;99.90
9219;DHT22;4644;48.858;9.184;2022-10-30T05:22:03;12.90;99.90
9219;DHT22;4644;48.858;9.184;2022-10-30T05:24:30;12.80;99.90
9219;DHT22;4644;48.858;9.184;2022-10-30T05:26:57;12.80;99.90
9219;DHT22;4644;48.858;9.184;2022-10-30T05:29:24;12.70;99.90
9219;DHT22;4644;48.858;9.184;2022-10-30T05:31:52;12.80;99.90
9219;DHT22;4644;48.858;9.184;2022-10-30T05:34:19;12.70;99.90
9219;DHT22;4644;48.858;9.184;2022-10-30T05:36:46;12.70;99.90
9219;DHT22;4644;48.858;9.184;2022-10-30T05:39:13;12.70;99.90
9219;DHT22;4644;48.858;9.184;2022-10-30T05:41:40;12.70;99.90
9219;DHT22;4644;48.858;9.184;2022-10-30T05:44:07;12.60;99.90
9219;DHT22;4644;48.858;9.184;2022-10-30T05:46:34;12.60;99.90
9219;DHT22;4644;48.858;9.184;2022-10-30T05:49:02;12.60;99.90
9219;DHT22;4644;48.858;9.184;2022-10-30T05:51:29;12.60;99.90
9219;DHT22;4644;48.858;9.184;2022-10-30T05:53:56;12.60;99.90
9219;DHT22;4644;48.858;9.184;2022-10-30T05:56:23;12.60;99.90
9219;DHT22;4644;48.858;9.184;2022-10-30T05:58:50;12.50;99.90
9219;DHT22;4644;48.858;9.184;2022-10-30T06:01:17;12.50;99.90
9219;DHT22;4644;48.858;9.184;2022-10-30T06:03:45;12.60;99.90
9219;DHT22;4644;48.858;9.184;2022-10-30T06:06:13;12.50;99.90
9219;DHT22;4644;48.858;9.184;2022-10-30T06:08:43;12.60;99.90
9219;DHT22;4644;48.858;9.184;2022-10-30T06:11:10;12.60;99.90
9219;DHT22;4644;48.858;9.184;2022-10-30T06:13:36;12.60;99.90
9219;DHT22;4644;48.858;9.184;2022-10-30T06:16:05;12.60;99.90
9219;DHT22;4644;48.858;9.184;2022-10-30T06:18:32;12.60;99.90
9219;DHT22;4644;48.858;9.184;2022-10-30T06:20:59;12.60;99.90
9219;DHT22;4644;48.858;9.184;2022-10-30T06:23:27;12.60;99.90
9219;DHT22;4644;48.858;9.184;2022-10-30T06:25:54;12.60;99.90
9219;DHT22;4644;48.858;9.184;2022-10-30T06:28:21;12.60;99.90
9219;DHT22;4644;48.858;9.184;2022-10-30T06:30:53;12.60;99.90
9219;DHT22;4644;48.858;9.184;2022-10-30T06:33:20;12.60;99.90
9219;DHT22;4644;48.858;9.184;2022-10-30T06:35:47;12.60;99.90
9219;DHT22;4644;48.858;9.184;2022-10-30T06:38:15;12.60;99.90
9219;DHT22;4644;48.858;9.184;2022-10-30T06:40:43;12.70;99.90
9219;DHT22;4644;48.858;9.184;2022-10-30T06:43:10;12.70;99.90
9219;DHT22;4644;48.858;9.184;2022-10-30T06:45:37;12.70;99.90
9219;DHT22;4644;48.858;9.184;2022-10-30T06:48:05;12.70;99.90
9219;DHT22;4644;48.858;9.184;2022-10-30T06:50:32;12.80;99.90
9219;DHT22;4644;48.858;9.184;2022-10-30T06:52:59;12.80;99.90
9219;DHT22;4644;48.858;9.184;2022-10-30T06:55:26;12.80;99.90
9219;DHT22;4644;48.858;9.184;2022-10-30T06:57:55;12.90;99.90
9219;DHT22;4644;48.858;9.184;2022-10-30T07:00:22;12.90;99.90
9219;DHT22;4644;48.858;9.184;2022-10-30T07:02:59;12.90;99.90
9219;DHT22;4644;48.858;9.184;2022-10-30T07:05:26;13.00;99.90
9219;DHT22;4644;48.858;9.184;2022-10-30T07:07:55;13.00;99.90
9219;DHT22;4644;48.858;9.184;2022-10-30T07:10:22;13.00;99.90
9219;DHT22;4644;48.858;9.184;2022-10-30T07:12:54;13.10;99.90
9219;DHT22;4644;48.858;9.184;2022-10-30T07:15:21;13.10;99.90
9219;DHT22;4644;48.858;9.184;2022-10-30T07:17:56;13.10;99.90
9219;DHT22;4644;48.858;9.184;2022-10-30T07:20:23;13.20;99.90
9219;DHT22;4644;48.858;9.184;2022-10-30T07:22:50;13.30;99.90
9219;DHT22;4644;48.858;9.184;2022-10-30T07:25:17;13.30;99.90
9219;DHT22;4644;48.858;9.184;2022-10-30T07:27:46;13.40;99.90
9219;DHT22;4644;48.858;9.184;2022-10-30T07:30:15;13.50;99.90
9219;DHT22;4644;48.858;9.184;2022-10-30T07:32:43;13.60;99.90
9219;DHT22;4644;48.858;9.184;2022-10-30T07:35:13;13.70;99.90
9219;DHT22;4644;48.858;9.184;2022-10-30T07:37:44;13.80;99.90
9219;DHT22;4644;48.858;9.184;2022-10-30T07:40:11;13.90;99.90
9219;DHT22;4644;48.858;9.184;2022-10-30T07:42:38;14.00;99.90
9219;DHT22;4644;48.858;9.184;2022-10-30T07:45:06;14.10;99.90
9219;DHT22;4644;48.858;9.184;2022-10-30T07:47:38;14.20;99.90
9219;DHT22;4644;48.858;9.184;2022-10-30T07:50:06;14.30;99.90
9219;DHT22;4644;48.858;9.184;2022-10-30T07:52:33;14.30;99.90
9219;DHT22;4644;48.858;9.184;2022-10-30T07:55:00;14.40;99.90
9219;DHT22;4644;48.858;9.184;2022-10-30T07:57:30;14.50;99.90
9219;DHT22;4644;48.858;9.184;2022-10-30T07:59:57;14.60;99.90
9219;DHT22;4644;48.858;9.184;2022-10-30T08:02:24;14.80;99.90
9219;DHT22;4644;48.858;9.184;2022-10-30T08:04:52;14.90;99.90
9219;DHT22;4644;48.858;9.184;2022-10-30T08:07:19;15.00;99.90
9219;DHT22;4644;48.858;9.184;2022-10-30T08:09:48;15.10;99.90
9219;DHT22;4644;48.858;9.184;2022-10-30T08:12:15;15.20;99.90
9219;DHT22;4644;48.858;9.184;2022-10-30T08:14:42;15.30;99.90
9219;DHT22;4644;48.858;9.184;2022-10-30T08:17:09;15.40;99.90
9219;DHT22;4644;48.858;9.184;2022-10-30T08:19:36;15.40;99.90
9219;DHT22;4644;48.858;9.184;2022-10-30T08:22:05;15.40;99.90
9219;DHT22;4644;48.858;9.184;2022-10-30T08:24:32;15.50;99.90
9219;DHT22;4644;48.858;9.184;2022-10-30T08:26:59;15.60;99.90
9219;DHT22;4644;48.858;9.184;2022-10-30T08:29:29;15.70;99.90
9219;DHT22;4644;48.858;9.184;2022-10-30T08:31:59;15.80;99.90
9219;DHT22;4644;48.858;9.184;2022-10-30T08:34:26;15.90;99.90
9219;DHT22;4644;48.858;9.184;2022-10-30T08:36:56;16.00;99.90
9219;DHT22;4644;48.858;9.184;2022-10-30T08:39:24;16.10;99.90
9219;DHT22;4644;48.858;9.184;2022-10-30T08:41:51;16.30;99.90
9219;DHT22;4644;48.858;9.184;2022-10-30T08:44:18;16.60;99.90
9219;DHT22;4644;48.858;9.184;2022-10-30T08:46:45;16.80;99.90
9219;DHT22;4644;48.858;9.184;2022-10-30T08:49:12;17.00;99.90
9219;DHT22;4644;48.858;9.184;2022-10-30T08:51:39;17.20;99.90
9219;DHT22;4644;48.858;9.184;2022-10-30T08:54:08;17.50;99.90
9219;DHT22;4644;48.858;9.184;2022-10-30T08:56:37;17.80;99.90
9219;DHT22;4644;48.858;9.184;2022-10-30T08:59:12;18.10;99.90
9219;DHT22;4644;48.858;9.184;2022-10-30T09:01:39;18.30;99.90
9219;DHT22;4644;48.858;9.184;2022-10-30T09:04:06;18.30;99.90
9219;DHT22;4644;48.858;9.184;2022-10-30T09:06:33;18.50;99.90
9219;DHT22;4644;48.858;9.184;2022-10-30T09:09:00;18.60;99.90
9219;DHT22;4644;48.858;9.184;2022-10-30T09:11:27;18.60;99.90
9219;DHT22;4644;48.858;9.184;2022-10-30T09:13:56;18.70;99.90
9219;DHT22;4644;48.858;9.184;2022-10-30T09:16:23;18.80;99.90
9219;DHT22;4644;48.858;9.184;2022-10-30T09:18:50;18.90;99.90
9219;DHT22;4644;48.858;9.184;2022-10-30T09:21:17;19.00;99.90
9219;DHT22;4644;48.858;9.184;2022-10-30T09:23:44;19.10;99.90
9219;DHT22;4644;48.858;9.184;2022-10-30T09:26:11;19.20;99.90
9219;DHT22;4644;48.858;9.184;2022-10-30T09:28:38;19.30;99.90
9219;DHT22;4644;48.858;9.184;2022-10-30T09:31:06;19.40;99.90
9219;DHT22;4644;48.858;9.184;2022-10-30T09:33:36;19.60;99.90
9219;DHT22;4644;48.858;9.184;2022-10-30T09:36:03;19.70;99.90
9219;DHT22;4644;48.858;9.184;2022-10-30T09:38:30;19.90;99.90
9219;DHT22;4644;48.858;9.184;2022-10-30T09:41:10;20.00;99.90
9219;DHT22;4644;48.858;9.184;2022-10-30T09:43:54;20.10;99.90
9219;DHT22;4644;48.858;9.184;2022-10-30T09:46:38;20.20;99.90
9219;DHT22;4644;48.858;9.184;2022-10-30T09:49:19;20.30;99.90
9219;DHT22;4644;48.858;9.184;2022-10-30T09:52:05;20.30;99.90
9219;DHT22;4644;48.858;9.184;2022-10-30T09:54:43;20.30;99.90
9219;DHT22;4644;48.858;9.184;2022-10-30T09:57:21;20.40;99.90
9219;DHT22;4644;48.858;9.184;2022-10-30T09:59:57;20.60;99.90
9219;DHT22;4644;48.858;9.184;2022-10-30T10:02:34;20.70;99.90
9219;DHT22;4644;48.858;9.184;2022-10-30T10:05:06;20.80;99.90
9219;DHT22;4644;48.858;9.184;2022-10-30T10:07:40;21.00;99.90
9219;DHT22;4644;48.858;9.184;2022-10-30T10:10:17;21.10;99.90
9219;DHT22;4644;48.858;9.184;2022-10-30T10:12:47;21.10;99.90
9219;DHT22;4644;48.858;9.184;2022-10-30T10:15:20;21.20;99.90
9219;DHT22;4644;48.858;9.184;2022-10-30T10:18:01;21.20;99.90
9219;DHT22;4644;48.858;9.184;2022-10-30T10:20:34;21.20;99.90
9219;DHT22;4644;48.858;9.184;2022-10-30T10:23:11;21.40;99.90
9219;DHT22;4644;48.858;9.184;2022-10-30T10:25:45;21.60;99.90
9219;DHT22;4644;48.858;9.184;2022-10-30T10:28:39;21.70;99.90
9219;DHT22;4644;48.858;9.184;2022-10-30T10:31:17;21.90;99.90
9219;DHT22;4644;48.858;9.184;2022-10-30T10:36:46;22.20;99.90
9219;DHT22;4644;48.858;9.184;2022-10-30T10:39:31;22.30;99.90
9219;DHT22;4644;48.858;9.184;2022-10-30T10:42:08;22.40;99.90
9219;DHT22;4644;48.858;9.184;2022-10-30T10:44:48;22.50;99.90
9219;DHT22;4644;48.858;9.184;2022-10-30T10:47:33;22.50;99.90
9219;DHT22;4644;48.858;9.184;2022-10-30T10:50:15;22.40;99.90
9219;DHT22;4644;48.858;9.184;2022-10-30T10:52:49;22.60;99.90
9219;DHT22;4644;48.858;9.184;2022-10-30T10:55:21;22.50;99.90
9219;DHT22;4644;48.858;9.184;2022-10-30T10:57:50;22.50;99.90
9219;DHT22;4644;48.858;9.184;2022-10-30T11:00:20;22.60;99.90
9219;DHT22;4644;48.858;9.184;2022-10-30T11:02:53;22.70;99.90
9219;DHT22;4644;48.858;9.184;2022-10-30T11:05:31;22.60;99.90
9219;DHT22;4644;48.858;9.184;2022-10-30T11:08:08;22.60;99.90
9219;DHT22;4644;48.858;9.184;2022-10-30T11:10:36;22.60;99.90
9219;DHT22;4644;48.858;9.184;2022-10-30T11:13:03;22.70;99.90
9219;DHT22;4644;48.858;9.184;2022-10-30T11:15:40;22.80;99.90
9219;DHT22;4644;48.858;9.184;2022-10-30T11:18:20;22.90;99.90
9219;DHT22;4644;48.858;9.184;2022-10-30T11:20:55;23.10;99.90
9219;DHT22;4644;48.858;9.184;2022-10-30T11:23:31;23.20;99.90
9219;DHT22;4644;48.858;9.184;2022-10-30T11:26:04;23.50;99.90
9219;DHT22;4644;48.858;9.184;2022-10-30T11:28:51;23.40;99.90
9219;DHT22;4644;48.858;9.184;2022-10-30T11:31:20;23.30;99.90
9219;DHT22;4644;48.858;9.184;2022-10-30T11:33:48;23.40;99.90
9219;DHT22;4644;48.858;9.184;2022-10-30T11:36:20;23.60;99.90
9219;DHT22;4644;48.858;9.184;2022-10-30T11:38:48;23.70;99.90
9219;DHT22;4644;48.858;9.184;2022-10-30T11:41:16;23.90;99.90
9219;DHT22;4644;48.858;9.184;2022-10-30T11:43:43;24.00;99.90
9219;DHT22;4644;48.858;9.184;2022-10-30T11:46:15;24.20;99.90
9219;DHT22;4644;48.858;9.184;2022-10-30T11:48:44;24.40;99.90
9219;DHT22;4644;48.858;9.184;2022-10-30T11:51:12;24.60;99.90
9219;DHT22;4644;48.858;9.184;2022-10-30T11:53:46;24.40;99.90
9219;DHT22;4644;48.858;9.184;2022-10-30T11:56:15;24.30;99.90
9219;DHT22;4644;48.858;9.184;2022-10-30T11:58:44;24.40;99.90
9219;DHT22;4644;48.858;9.184;2022-10-30T12:01:20;24.20;99.90
9219;DHT22;4644;48.858;9.184;2022-10-30T12:03:48;24.00;99.90
9219;DHT22;4644;48.858;9.184;2022-10-30T12:06:19;23.80;99.90
9219;DHT22;4644;48.858;9.184;2022-10-30T12:09:02;23.70;99.90
9219;DHT22;4644;48.858;9.184;2022-10-30T12:11:31;23.50;99.90
9219;DHT22;4644;48.858;9.184;2022-10-30T12:13:58;23.30;99.90
9219;DHT22;4644;48.858;9.184;2022-10-30T12:16:26;23.10;99.90
9219;DHT22;4644;48.858;9.184;2022-10-30T12:18:58;23.00;99.90
9219;DHT22;4644;48.858;9.184;2022-10-30T12:21:26;22.90;99.90
9219;DHT22;4644;48.858;9.184;2022-10-30T12:23:57;22.80;99.90
9219;DHT22;4644;48.858;9.184;2022-10-30T12:26:27;22.80;99.90
9219;DHT22;4644;48.858;9.184;2022-10-30T12:28:58;22.80;99.90
9219;DHT22;4644;48.858;9.184;2022-10-30T12:31:33;22.70;99.90
9219;DHT22;4644;48.858;9.184;2022-10-30T12:34:08;22.70;99.90
9219;DHT22;4644;48.858;9.184;2022-10-30T12:36:44;22.70;99.90
9219;DHT22;4644;48.858;9.184;2022-10-30T12:39:16;22.70;99.90
9219;DHT22;4644;48.858;9.184;2022-10-30T12:41:53;22.70;99.90
9219;DHT22;4644;48.858;9.184;2022-10-30T12:44:26;22.70;99.90
9219;DHT22;4644;48.858;9.184;2022-10-30T12:46:57;22.70;99.90
9219;DHT22;4644;48.858;9.184;2022-10-30T12:49:33;22.70;99.90
9219;DHT22;4644;48.858;9.184;2022-10-30T12:52:04;22.70;99.90
9219;DHT22;4644;48.858;9.184;2022-10-30T12:54:38;22.70;99.90
9219;DHT22;4644;48.858;9.184;2022-10-30T12:57:10;22.70;99.90
9219;DHT22;4644;48.858;9.184;2022-10-30T12:59:45;22.70;99.90
9219;DHT22;4644;48.858;9.184;2022-10-30T13:02:24;22.70;99.90
9219;DHT22;4644;48.858;9.184;2022-10-30T13:04:57;22.70;99.90
9219;DHT22;4644;48.858;9.184;2022-10-30T13:07:30;22.70;99.90
9219;DHT22;4644;48.858;9.184;2022-10-30T13:10:11;22.70;99.90
9219;DHT22;4644;48.858;9.184;2022-10-30T13:12:45;22.70;99.90
9219;DHT22;4644;48.858;9.184;2022-10-30T13:15:16;22.60;99.90
9219;DHT22;4644;48.858;9.184;2022-10-30T13:17:45;22.60;99.90
9219;DHT22;4644;48.858;9.184;2022-10-30T13:20:13;22.60;99.90
9219;DHT22;4644;48.858;9.184;2022-10-30T13:22:46;22.60;99.90
9219;DHT22;4644;48.858;9.184;2022-10-30T13:25:19;22.60;99.90
9219;DHT22;4644;48.858;9.184;2022-10-30T13:27:52;22.60;99.90
9219;DHT22;4644;48.858;9.184;2022-10-30T13:30:22;22.50;99.90
9219;DHT22;4644;48.858;9.184;2022-10-30T13:33:01;22.50;99.90
9219;DHT22;4644;48.858;9.184;2022-10-30T13:35:39;22.40;99.90
9219;DHT22;4644;48.858;9.184;2022-10-30T13:38:36;22.40;99.90
9219;DHT22;4644;48.858;9.184;2022-10-30T13:41:09;22.30;99.90
9219;DHT22;4644;48.858;9.184;2022-10-30T13:43:48;22.20;99.90
9219;DHT22;4644;48.858;9.184;2022-10-30T13:46:41;22.20;99.90
9219;DHT22;4644;48.858;9.184;2022-10-30T13:49:28;22.30;99.90
9219;DHT22;4644;48.858;9.184;2022-10-30T13:52:07;22.30;99.90
9219;DHT22;4644;48.858;9.184;2022-10-30T13:54:38;22.30;99.90
9219;DHT22;4644;48.858;9.184;2022-10-30T13:57:11;22.20;99.90
9219;DHT22;4644;48.858;9.184;2022-10-30T13:59:50;22.20;99.90
9219;DHT22;4644;48.858;9.184;2022-10-30T14:02:30;22.10;99.90
9219;DHT22;4644;48.858;9.184;2022-10-30T14:05:06;22.10;99.90
9219;DHT22;4644;48.858;9.184;2022-10-30T14:07:44;22.00;99.90
9219;DHT22;4644;48.858;9.184;2022-10-30T14:10:20;22.00;99.90
9219;DHT22;4644;48.858;9.184;2022-10-30T14:12:50;22.00;99.90
9219;DHT22;4644;48.858;9.184;2022-10-30T14:15:32;22.00;99.90
9219;DHT22;4644;48.858;9.184;2022-10-30T14:18:25;21.90;99.90
9219;DHT22;4644;48.858;9.184;2022-10-30T14:20:53;21.90;99.90
9219;DHT22;4644;48.858;9.184;2022-10-30T14:23:22;21.80;99.90
9219;DHT22;4644;48.858;9.184;2022-10-30T14:26:18;21.70;99.90
9219;DHT22;4644;48.858;9.184;2022-10-30T14:28:46;21.60;99.90
9219;DHT22;4644;48.858;9.184;2022-10-30T14:31:31;21.40;99.90
9219;DHT22;4644;48.858;9.184;2022-10-30T14:33:58;21.20;99.90
9219;DHT22;4644;48.858;9.184;2022-10-30T14:36:50;21.10;99.90
9219;DHT22;4644;48.858;9.184;2022-10-30T14:39:28;21.00;99.90
9219;DHT22;4644;48.858;9.184;2022-10-30T14:42:09;20.90;99.90
9219;DHT22;4644;48.858;9.184;2022-10-30T14:45:00;20.80;99.90
9219;DHT22;4644;48.858;9.184;2022-10-30T14:47:37;20.70;99.90
9219;DHT22;4644;48.858;9.184;2022-10-30T14:50:17;20.60;99.90
9219;DHT22;4644;48.858;9.184;2022-10-30T14:53:07;20.50;99.90
9219;DHT22;4644;48.858;9.184;2022-10-30T14:55:49;20.40;99.90
9219;DHT22;4644;48.858;9.184;2022-10-30T14:58:22;20.20;99.90
9219;DHT22;4644;48.858;9.184;2022-10-30T15:00:51;20.20;99.90
9219;DHT22;4644;48.858;9.184;2022-10-30T15:03:43;20.10;99.90
9219;DHT22;4644;48.858;9.184;2022-10-30T15:06:21;20.00;99.90
9219;DHT22;4644;48.858;9.184;2022-10-30T15:09:11;19.90;99.90
9219;DHT22;4644;48.858;9.184;2022-10-30T15:11:58;19.80;99.90
9219;DHT22;4644;48.858;9.184;2022-10-30T15:14:30;19.70;99.90
9219;DHT22;4644;48.858;9.184;2022-10-30T15:16:58;19.60;99.90
9219;DHT22;4644;48.858;9.184;2022-10-30T15:19:25;19.60;99.90
9219;DHT22;4644;48.858;9.184;2022-10-30T15:21:54;19.50;99.90
9219;DHT22;4644;48.858;9.184;2022-10-30T15:24:25;19.40;99.90
9219;DHT22;4644;48.858;9.184;2022-10-30T15:26:54;19.30;99.90
9219;DHT22;4644;48.858;9.184;2022-10-30T15:29:25;19.20;99.90
9219;DHT22;4644;48.858;9.184;2022-10-30T15:31:58;19.20;99.90
9219;DHT22;4644;48.858;9.184;2022-10-30T15:34:27;19.00;99.90
9219;DHT22;4644;48.858;9.184;2022-10-30T15:36:54;19.00;99.90
9219;DHT22;4644;48.858;9.184;2022-10-30T15:39:23;18.80;99.90
9219;DHT22;4644;48.858;9.184;2022-10-30T15:41:53;18.80;99.90
9219;DHT22;4644;48.858;9.184;2022-10-30T15:44:23;18.70;99.90
9219;DHT22;4644;48.858;9.184;2022-10-30T15:46:52;18.60;99.90
9219;DHT22;4644;48.858;9.184;2022-10-30T15:49:27;18.60;99.90
9219;DHT22;4644;48.858;9.184;2022-10-30T15:51:56;18.50;99.90
9219;DHT22;4644;48.858;9.184;2022-10-30T15:54:26;18.40;99.90
9219;DHT22;4644;48.858;9.184;2022-10-30T15:56:57;18.30;99.90
9219;DHT22;4644;48.858;9.184;2022-10-30T15:59:27;18.20;99.90
9219;DHT22;4644;48.858;9.184;2022-10-30T16:01:56;18.10;99.90
9219;DHT22;4644;48.858;9.184;2022-10-30T16:04:24;18.00;99.90
9219;DHT22;4644;48.858;9.184;2022-10-30T16:06:53;17.80;99.90
9219;DHT22;4644;48.858;9.184;2022-10-30T16:09:20;17.80;99.90
9219;DHT22;4644;48.858;9.184;2022-10-30T16:11:51;17.70;99.90
9219;DHT22;4644;48.858;9.184;2022-10-30T16:14:22;17.60;99.90
9219;DHT22;4644;48.858;9.184;2022-10-30T16:16:49;17.50;99.90
9219;DHT22;4644;48.858;9.184;2022-10-30T16:19:23;17.40;99.90
9219;DHT22;4644;48.858;9.184;2022-10-30T16:21:52;17.30;99.90
9219;DHT22;4644;48.858;9.184;2022-10-30T16:24:22;17.20;99.90
9219;DHT22;4644;48.858;9.184;2022-10-30T16:27:03;17.10;99.90
9219;DHT22;4644;48.858;9.184;2022-10-30T16:29:31;17.00;99.90